Homer, AK

7:21 PM AKDT on September 15, 2014 (GMT -0800)
Kenai Municipal | Change Station
CLOSE
Current Station
Airport
Location: Kenai,
Elevation: 95 ft
Nearby Weather Stations

Elev 95 ft 60.58 °N, 151.24 °W | Updated 28 minutes ago

Light Rain
Light Rain
53 °F
Feels Like 53 °F
N
4
Wind Variable Wind from NW

Today
High -- | Low -- °F
--% Chance of Precip.
Yesterday
High -- | Low -- °F
Precip. -- in
7:34 AM 8:26 PM
Waning Gibbous, 49% visible
Pressure 29.64 in
Visibility 10.0 miles
Clouds Few 1000 ft
Mostly Cloudy 3500 ft
Overcast 4500 ft
Dew Point 49 °F
Humidity 86%
Rainfall 0.27 in
Snow Depth 0 in , 2 in , 0 in
UV 0 out of 12
Pollen Not available.
Air Quality Not available.
Flu Activity Not available.
METAR PAEN 160253Z 32003KT 10SM -RA FEW010 BKN035 OVC045 12/09 A2963 RMK AO2 RAB0155E29B47 SLP035 P0001 60006 T01170094 53009

More Conditions Fewer Conditions

Pressure 29.64 in
Visibility 10.0 miles
Clouds Few 1000 ft
Mostly Cloudy 3500 ft
Overcast 4500 ft
Dew Point 49 °F
Humidity 86%
Rainfall 0.27 in
Snow Depth 0 in , 2 in , 0 in
UV 0 out of 12
Pollen Not available.
Air Quality Not available.
Flu Activity Not available.
METAR PAEN 160253Z 32003KT 10SM -RA FEW010 BKN035 OVC045 12/09 A2963 RMK AO2 RAB0155E29B47 SLP035 P0001 60006 T01170094 53009

More Conditions Fewer Conditions

10-Day Weather Forecast

Almanac

Astronomy

Sep. 15, 2014 Rise Set
Actual Time 7:34 AM AKDT 8:26 PM AKDT
Civil Twilight 6:52 AM AKDT 9:07 PM AKDT
Nautical Twilight 6:01 AM AKDT 9:58 PM AKDT
Astronomical Twilight 5:03 AM AKDT 10:56 PM AKDT
Moon 11:49 PM AKDT (9/15) 4:13 PM AKDT (9/15)
Length of Visible Light 14h 14m
Length of Day
12h 51m
Tomorrow will be 5m 20s shorter.
Waning Gibbous, 49% of the Moon is Illuminated
Today
Waning Gibbous
Sep 24
New
Oct 1
First Quarter
Oct 8
Full
Oct 15
Last Quarter

Today's Extremes

State Highs State Lows

Community

WunderPhotos

Upload Photos

1,753,694 photos uploaded!

Nearby

Snow Depth

Station Depth Elevation
Eagle Summit 0 in 3650 ft
Turnagain Pass 2 in 1880 ft
Upper Tsaina River 0 in 1750 ft
Coldfoot 0 in 1040 ft
Summit Creek 0 in 1400 ft

Earthquake Activity

City Distance Mag. Time & Date
No recent earthquake activity has been reported nearby.
Minimum magnitude displayed is 2.5.

Coastal Water Temperatures

Place Temperature
No Stations Reporting

Nearby Weather Stations